首页
METAR-TAF:

METAR-TAF

机场 :

迪比克, 艾奥瓦州, 美国

纬度: 42-23-52N, 经度: 090-42-13W, 海拔: 328米

当前天气观测

该预报发布于34分钟前的01:13 UTC
静风
温度 2°C
湿度 100%
气压 1014 hPa
能見度: 0.4公里
阴天层高于4200英尺

METAR: KDBQ 200113Z 00000KT 1/4SM R36/1400V2200FT FG OVC042 02/02 A2993 RMK AO2 T00220017

时间: 19:47 (01:47 UTC)

预报

该预报发布于25分钟前的01:22 UTC
预报有效从20日的 01点(UTC)到 20日的 24点(UTC)
风速3节,风向多变
能見度: 1.6公里
多云层高于1500英尺
阴天层高于4000英尺
轻雾
短暂存在
从 20日的 01点(UTC)到 20日的 03点(UTC)
能見度: 0.4公里
散云层高于400英尺
从 20日的 0600点(UTC)
风速3节,风向多变
能見度: 0.8公里
散云层高于300英尺
多云层高于700英尺
从 20日的 1400点(UTC)
风速5节,风向东南
能見度: 10公里
阴天层高于1500英尺
从 20日的 1600点(UTC)
风速9节,风向东南
能見度: 10公里
多云层高于2500英尺

TAF: KDBQ 200122Z 2001/2024 VRB03KT 1SM BR BKN015 OVC040 TEMPO 2001/2003 1/4SM FG SCT004 FM200600 VRB03KT 1/2SM FG SCT003 BKN007 FM201400 13005KT P6SM OVC015 FM201600 14009KT P6SM BKN025

超过4000个机场的气象观测和天气预报(METAR&TAF报告)。

可查询的气象台以黄色和红色小点在地图上表示。

将鼠标移到小点上方,可查看气象台名称。

然后点击查看天气观测和预报。

如需切换地图:点击带黑十字的绿色按钮放大地图;点击带横线的绿色按钮缩小地图;或者点击绿色箭头查看邻近地区的地图。


METAR-TAF: